sensor_id;sensor_type;location;lat;lon;timestamp;temperature;humidity
54192;DHT22;40101;53.002;6.488;2023-02-22T00:01:39;8.60;99.90
54192;DHT22;40101;53.002;6.488;2023-02-22T00:04:35;8.60;99.90
54192;DHT22;40101;53.002;6.488;2023-02-22T00:07:04;8.60;99.90
54192;DHT22;40101;53.002;6.488;2023-02-22T00:09:32;8.60;99.90
54192;DHT22;40101;53.002;6.488;2023-02-22T00:11:58;8.70;99.90
54192;DHT22;40101;53.002;6.488;2023-02-22T00:14:23;8.70;99.90
54192;DHT22;40101;53.002;6.488;2023-02-22T00:17:13;8.60;99.90
54192;DHT22;40101;53.002;6.488;2023-02-22T00:19:47;8.60;99.90
54192;DHT22;40101;53.002;6.488;2023-02-22T00:22:16;8.90;99.90
54192;DHT22;40101;53.002;6.488;2023-02-22T00:24:43;8.50;99.90
54192;DHT22;40101;53.002;6.488;2023-02-22T00:27:11;8.50;99.90
54192;DHT22;40101;53.002;6.488;2023-02-22T00:29:44;8.60;99.90
54192;DHT22;40101;53.002;6.488;2023-02-22T00:32:14;8.50;99.90
54192;DHT22;40101;53.002;6.488;2023-02-22T00:34:40;8.50;99.90
54192;DHT22;40101;53.002;6.488;2023-02-22T00:37:09;8.50;99.90
54192;DHT22;40101;53.002;6.488;2023-02-22T00:39:41;8.60;99.90
54192;DHT22;40101;53.002;6.488;2023-02-22T00:42:16;8.50;99.90
54192;DHT22;40101;53.002;6.488;2023-02-22T00:48:56;8.50;99.90
54192;DHT22;40101;53.002;6.488;2023-02-22T00:51:43;8.60;99.90
54192;DHT22;40101;53.002;6.488;2023-02-22T00:58:22;8.50;99.90
54192;DHT22;40101;53.002;6.488;2023-02-22T01:00:49;8.50;99.90
54192;DHT22;40101;53.002;6.488;2023-02-22T01:03:19;8.50;99.90
54192;DHT22;40101;53.002;6.488;2023-02-22T01:05:45;8.50;99.90
54192;DHT22;40101;53.002;6.488;2023-02-22T01:08:13;8.60;99.90
54192;DHT22;40101;53.002;6.488;2023-02-22T01:10:39;8.50;99.90
54192;DHT22;40101;53.002;6.488;2023-02-22T01:13:06;8.80;99.90
54192;DHT22;40101;53.002;6.488;2023-02-22T01:15:34;8.60;99.90
54192;DHT22;40101;53.002;6.488;2023-02-22T01:18:01;8.30;99.90
54192;DHT22;40101;53.002;6.488;2023-02-22T01:20:27;8.50;99.90
54192;DHT22;40101;53.002;6.488;2023-02-22T01:22:55;8.80;99.90
54192;DHT22;40101;53.002;6.488;2023-02-22T01:25:24;8.50;99.90
54192;DHT22;40101;53.002;6.488;2023-02-22T01:27:50;8.60;99.90
54192;DHT22;40101;53.002;6.488;2023-02-22T01:30:20;8.50;99.90
54192;DHT22;40101;53.002;6.488;2023-02-22T01:32:46;8.40;99.90
54192;DHT22;40101;53.002;6.488;2023-02-22T01:35:16;8.40;99.90
54192;DHT22;40101;53.002;6.488;2023-02-22T01:37:43;8.40;99.90
54192;DHT22;40101;53.002;6.488;2023-02-22T01:42:55;8.40;99.90
54192;DHT22;40101;53.002;6.488;2023-02-22T01:50:38;8.40;99.90
54192;DHT22;40101;53.002;6.488;2023-02-22T01:53:09;8.40;99.90
54192;DHT22;40101;53.002;6.488;2023-02-22T01:55:36;8.40;99.90
54192;DHT22;40101;53.002;6.488;2023-02-22T01:58:17;8.40;99.90
54192;DHT22;40101;53.002;6.488;2023-02-22T02:00:43;8.40;99.90
54192;DHT22;40101;53.002;6.488;2023-02-22T02:03:25;8.50;99.90
54192;DHT22;40101;53.002;6.488;2023-02-22T02:05:54;8.40;99.90
54192;DHT22;40101;53.002;6.488;2023-02-22T02:08:39;8.60;99.90
54192;DHT22;40101;53.002;6.488;2023-02-22T02:11:08;8.30;99.90
54192;DHT22;40101;53.002;6.488;2023-02-22T02:13:43;8.40;99.90
54192;DHT22;40101;53.002;6.488;2023-02-22T02:16:40;8.40;99.90
54192;DHT22;40101;53.002;6.488;2023-02-22T02:19:30;8.40;99.90
54192;DHT22;40101;53.002;6.488;2023-02-22T02:22:54;8.30;99.90
54192;DHT22;40101;53.002;6.488;2023-02-22T02:40:38;8.60;99.90
54192;DHT22;40101;53.002;6.488;2023-02-22T02:46:32;8.30;99.90
54192;DHT22;40101;53.002;6.488;2023-02-22T02:49:10;8.30;99.90
54192;DHT22;40101;53.002;6.488;2023-02-22T02:51:43;8.50;99.90
54192;DHT22;40101;53.002;6.488;2023-02-22T02:54:14;8.30;99.90
54192;DHT22;40101;53.002;6.488;2023-02-22T02:56:44;8.30;99.90
54192;DHT22;40101;53.002;6.488;2023-02-22T02:59:43;8.30;99.90
54192;DHT22;40101;53.002;6.488;2023-02-22T03:02:14;8.40;99.90
54192;DHT22;40101;53.002;6.488;2023-02-22T03:05:11;8.20;99.90
54192;DHT22;40101;53.002;6.488;2023-02-22T03:07:54;8.30;99.90
54192;DHT22;40101;53.002;6.488;2023-02-22T03:10:41;8.20;99.90
54192;DHT22;40101;53.002;6.488;2023-02-22T03:18:55;8.20;99.90
54192;DHT22;40101;53.002;6.488;2023-02-22T03:22:01;8.50;99.90
54192;DHT22;40101;53.002;6.488;2023-02-22T03:24:48;8.20;99.90
54192;DHT22;40101;53.002;6.488;2023-02-22T03:27:41;8.20;99.90
54192;DHT22;40101;53.002;6.488;2023-02-22T03:30:21;8.10;99.90
54192;DHT22;40101;53.002;6.488;2023-02-22T03:32:57;8.20;99.90
54192;DHT22;40101;53.002;6.488;2023-02-22T03:35:29;8.10;99.90
54192;DHT22;40101;53.002;6.488;2023-02-22T03:37:59;8.10;99.90
54192;DHT22;40101;53.002;6.488;2023-02-22T03:40:39;8.10;99.90
54192;DHT22;40101;53.002;6.488;2023-02-22T03:43:12;8.10;99.90
54192;DHT22;40101;53.002;6.488;2023-02-22T03:45:42;8.20;99.90
54192;DHT22;40101;53.002;6.488;2023-02-22T03:51:30;8.10;99.90
54192;DHT22;40101;53.002;6.488;2023-02-22T03:53:58;8.20;99.90
54192;DHT22;40101;53.002;6.488;2023-02-22T03:56:54;8.10;99.90
54192;DHT22;40101;53.002;6.488;2023-02-22T03:59:51;8.10;99.90
54192;DHT22;40101;53.002;6.488;2023-02-22T04:02:16;8.10;99.90
54192;DHT22;40101;53.002;6.488;2023-02-22T04:04:47;8.10;99.90
54192;DHT22;40101;53.002;6.488;2023-02-22T04:07:13;8.10;99.90
54192;DHT22;40101;53.002;6.488;2023-02-22T04:10:05;8.10;99.90
54192;DHT22;40101;53.002;6.488;2023-02-22T04:13:45;8.10;99.90
54192;DHT22;40101;53.002;6.488;2023-02-22T04:16:27;8.10;99.90
54192;DHT22;40101;53.002;6.488;2023-02-22T04:18:53;8.00;99.90
54192;DHT22;40101;53.002;6.488;2023-02-22T04:21:21;8.10;99.90
54192;DHT22;40101;53.002;6.488;2023-02-22T04:23:50;8.10;99.90
54192;DHT22;40101;53.002;6.488;2023-02-22T04:26:26;8.20;99.90
54192;DHT22;40101;53.002;6.488;2023-02-22T04:29:13;8.10;99.90
54192;DHT22;40101;53.002;6.488;2023-02-22T04:31:43;8.20;99.90
54192;DHT22;40101;53.002;6.488;2023-02-22T04:34:09;8.10;99.90
54192;DHT22;40101;53.002;6.488;2023-02-22T04:36:39;8.10;99.90
54192;DHT22;40101;53.002;6.488;2023-02-22T04:39:21;8.10;99.90
54192;DHT22;40101;53.002;6.488;2023-02-22T04:42:03;8.30;99.90
54192;DHT22;40101;53.002;6.488;2023-02-22T04:44:30;8.10;99.90
54192;DHT22;40101;53.002;6.488;2023-02-22T04:46:56;8.10;99.90
54192;DHT22;40101;53.002;6.488;2023-02-22T04:49:22;8.10;99.90
54192;DHT22;40101;53.002;6.488;2023-02-22T04:51:48;8.30;99.90
54192;DHT22;40101;53.002;6.488;2023-02-22T04:54:13;8.10;99.90
54192;DHT22;40101;53.002;6.488;2023-02-22T04:56:42;8.00;99.90
54192;DHT22;40101;53.002;6.488;2023-02-22T04:59:34;8.10;99.90
54192;DHT22;40101;53.002;6.488;2023-02-22T05:02:24;8.00;99.90
54192;DHT22;40101;53.002;6.488;2023-02-22T05:05:28;8.10;99.90
54192;DHT22;40101;53.002;6.488;2023-02-22T05:11:37;8.00;99.90
54192;DHT22;40101;53.002;6.488;2023-02-22T05:18:35;8.00;99.90
54192;DHT22;40101;53.002;6.488;2023-02-22T05:24:59;8.00;99.90
54192;DHT22;40101;53.002;6.488;2023-02-22T05:35:00;8.00;99.90
54192;DHT22;40101;53.002;6.488;2023-02-22T05:37:54;8.10;99.90
54192;DHT22;40101;53.002;6.488;2023-02-22T05:40:29;7.90;99.90
54192;DHT22;40101;53.002;6.488;2023-02-22T05:43:00;7.90;99.90
54192;DHT22;40101;53.002;6.488;2023-02-22T05:45:27;7.90;99.90
54192;DHT22;40101;53.002;6.488;2023-02-22T05:47:54;7.90;99.90
54192;DHT22;40101;53.002;6.488;2023-02-22T05:50:20;7.90;99.90
54192;DHT22;40101;53.002;6.488;2023-02-22T05:52:47;7.90;99.90
54192;DHT22;40101;53.002;6.488;2023-02-22T05:55:15;7.90;99.90
54192;DHT22;40101;53.002;6.488;2023-02-22T05:57:41;8.10;99.90
54192;DHT22;40101;53.002;6.488;2023-02-22T06:00:07;7.80;99.90
54192;DHT22;40101;53.002;6.488;2023-02-22T06:02:33;7.80;99.90
54192;DHT22;40101;53.002;6.488;2023-02-22T06:04:59;7.80;99.90
54192;DHT22;40101;53.002;6.488;2023-02-22T06:07:25;7.80;99.90
54192;DHT22;40101;53.002;6.488;2023-02-22T06:09:51;7.80;99.90
54192;DHT22;40101;53.002;6.488;2023-02-22T06:12:18;7.70;99.90
54192;DHT22;40101;53.002;6.488;2023-02-22T06:14:46;7.70;99.90
54192;DHT22;40101;53.002;6.488;2023-02-22T06:17:13;7.70;99.90
54192;DHT22;40101;53.002;6.488;2023-02-22T06:19:51;7.70;99.90
54192;DHT22;40101;53.002;6.488;2023-02-22T06:22:18;7.70;99.90
54192;DHT22;40101;53.002;6.488;2023-02-22T06:24:44;7.60;99.90
54192;DHT22;40101;53.002;6.488;2023-02-22T06:27:10;7.70;99.90
54192;DHT22;40101;53.002;6.488;2023-02-22T06:29:36;7.60;99.90
54192;DHT22;40101;53.002;6.488;2023-02-22T06:32:02;7.60;99.90
54192;DHT22;40101;53.002;6.488;2023-02-22T06:34:27;7.80;99.90
54192;DHT22;40101;53.002;6.488;2023-02-22T06:36:53;7.50;99.90
54192;DHT22;40101;53.002;6.488;2023-02-22T06:39:19;7.70;99.90
54192;DHT22;40101;53.002;6.488;2023-02-22T06:41:45;7.60;99.90
54192;DHT22;40101;53.002;6.488;2023-02-22T06:44:12;7.50;99.90
54192;DHT22;40101;53.002;6.488;2023-02-22T06:46:38;7.60;99.90
54192;DHT22;40101;53.002;6.488;2023-02-22T06:49:04;7.50;99.90
54192;DHT22;40101;53.002;6.488;2023-02-22T06:51:35;7.60;99.90
54192;DHT22;40101;53.002;6.488;2023-02-22T06:54:10;7.50;99.90
54192;DHT22;40101;53.002;6.488;2023-02-22T06:56:38;7.60;99.90
54192;DHT22;40101;53.002;6.488;2023-02-22T06:59:04;7.50;99.90
54192;DHT22;40101;53.002;6.488;2023-02-22T07:01:29;7.50;99.90
54192;DHT22;40101;53.002;6.488;2023-02-22T07:03:55;7.40;99.90
54192;DHT22;40101;53.002;6.488;2023-02-22T07:09:25;7.80;99.90
54192;DHT22;40101;53.002;6.488;2023-02-22T07:11:50;7.60;99.90
54192;DHT22;40101;53.002;6.488;2023-02-22T07:14:16;7.70;99.90
54192;DHT22;40101;53.002;6.488;2023-02-22T07:16:42;7.60;99.90
54192;DHT22;40101;53.002;6.488;2023-02-22T07:19:08;7.70;99.90
54192;DHT22;40101;53.002;6.488;2023-02-22T07:21:33;7.90;99.90
54192;DHT22;40101;53.002;6.488;2023-02-22T07:23:59;7.70;99.90
54192;DHT22;40101;53.002;6.488;2023-02-22T07:26:25;7.90;99.90
54192;DHT22;40101;53.002;6.488;2023-02-22T07:28:51;7.60;99.90
54192;DHT22;40101;53.002;6.488;2023-02-22T07:31:17;7.60;99.90
54192;DHT22;40101;53.002;6.488;2023-02-22T07:33:45;7.60;99.90
54192;DHT22;40101;53.002;6.488;2023-02-22T07:36:11;7.60;99.90
54192;DHT22;40101;53.002;6.488;2023-02-22T07:38:39;7.60;99.90
54192;DHT22;40101;53.002;6.488;2023-02-22T07:41:05;7.80;99.90
54192;DHT22;40101;53.002;6.488;2023-02-22T07:43:31;7.60;99.90
54192;DHT22;40101;53.002;6.488;2023-02-22T07:46:06;7.60;99.90
54192;DHT22;40101;53.002;6.488;2023-02-22T07:48:32;7.60;99.90
54192;DHT22;40101;53.002;6.488;2023-02-22T07:50:58;7.60;99.90
54192;DHT22;40101;53.002;6.488;2023-02-22T07:53:27;7.60;99.90
54192;DHT22;40101;53.002;6.488;2023-02-22T07:55:58;7.70;99.90
54192;DHT22;40101;53.002;6.488;2023-02-22T07:58:28;7.70;99.90
54192;DHT22;40101;53.002;6.488;2023-02-22T08:00:55;7.70;99.90
54192;DHT22;40101;53.002;6.488;2023-02-22T08:03:23;7.60;99.90
54192;DHT22;40101;53.002;6.488;2023-02-22T08:05:52;7.60;99.90
54192;DHT22;40101;53.002;6.488;2023-02-22T08:08:18;7.80;99.90
54192;DHT22;40101;53.002;6.488;2023-02-22T08:10:44;7.70;99.90
54192;DHT22;40101;53.002;6.488;2023-02-22T08:13:10;7.60;99.90
54192;DHT22;40101;53.002;6.488;2023-02-22T08:15:38;7.70;99.90
54192;DHT22;40101;53.002;6.488;2023-02-22T08:18:08;7.60;99.90
54192;DHT22;40101;53.002;6.488;2023-02-22T08:20:34;7.70;99.90
54192;DHT22;40101;53.002;6.488;2023-02-22T08:23:00;7.60;99.90
54192;DHT22;40101;53.002;6.488;2023-02-22T08:25:27;7.70;99.90
54192;DHT22;40101;53.002;6.488;2023-02-22T08:27:59;7.70;99.90
54192;DHT22;40101;53.002;6.488;2023-02-22T08:30:27;7.70;99.90
54192;DHT22;40101;53.002;6.488;2023-02-22T08:32:53;7.80;99.90
54192;DHT22;40101;53.002;6.488;2023-02-22T08:35:20;7.70;99.90
54192;DHT22;40101;53.002;6.488;2023-02-22T08:37:51;7.90;99.90
54192;DHT22;40101;53.002;6.488;2023-02-22T08:40:22;7.90;99.90
54192;DHT22;40101;53.002;6.488;2023-02-22T08:42:48;7.80;99.90
54192;DHT22;40101;53.002;6.488;2023-02-22T08:45:14;7.80;99.90
54192;DHT22;40101;53.002;6.488;2023-02-22T08:47:41;7.70;99.90
54192;DHT22;40101;53.002;6.488;2023-02-22T08:50:08;8.00;99.90
54192;DHT22;40101;53.002;6.488;2023-02-22T08:52:33;7.70;99.90
54192;DHT22;40101;53.002;6.488;2023-02-22T08:54:59;7.80;99.90
54192;DHT22;40101;53.002;6.488;2023-02-22T08:57:25;7.80;99.90
54192;DHT22;40101;53.002;6.488;2023-02-22T08:59:51;7.80;99.90
54192;DHT22;40101;53.002;6.488;2023-02-22T09:02:20;8.00;99.90
54192;DHT22;40101;53.002;6.488;2023-02-22T09:04:47;8.00;99.90
54192;DHT22;40101;53.002;6.488;2023-02-22T09:07:14;7.90;99.90
54192;DHT22;40101;53.002;6.488;2023-02-22T09:09:41;7.90;99.90
54192;DHT22;40101;53.002;6.488;2023-02-22T09:12:08;8.00;99.90
54192;DHT22;40101;53.002;6.488;2023-02-22T09:18:44;8.10;99.90
54192;DHT22;40101;53.002;6.488;2023-02-22T09:21:16;8.20;99.90
54192;DHT22;40101;53.002;6.488;2023-02-22T09:23:46;8.30;99.90
54192;DHT22;40101;53.002;6.488;2023-02-22T09:29:11;8.30;99.90
54192;DHT22;40101;53.002;6.488;2023-02-22T09:31:38;8.70;99.90
54192;DHT22;40101;53.002;6.488;2023-02-22T09:34:06;8.70;99.90
54192;DHT22;40101;53.002;6.488;2023-02-22T09:36:45;8.50;99.90
54192;DHT22;40101;53.002;6.488;2023-02-22T09:39:13;8.50;99.90
54192;DHT22;40101;53.002;6.488;2023-02-22T09:47:04;8.60;99.90
54192;DHT22;40101;53.002;6.488;2023-02-22T09:49:42;8.80;99.90
54192;DHT22;40101;53.002;6.488;2023-02-22T09:52:24;8.60;99.90
54192;DHT22;40101;53.002;6.488;2023-02-22T09:55:08;8.70;99.90
54192;DHT22;40101;53.002;6.488;2023-02-22T09:57:39;8.70;99.90
54192;DHT22;40101;53.002;6.488;2023-02-22T10:00:12;8.80;99.90
54192;DHT22;40101;53.002;6.488;2023-02-22T10:05:30;8.60;99.90
54192;DHT22;40101;53.002;6.488;2023-02-22T10:08:16;8.50;99.90
54192;DHT22;40101;53.002;6.488;2023-02-22T10:10:45;8.50;99.90
54192;DHT22;40101;53.002;6.488;2023-02-22T10:13:43;8.50;99.90
54192;DHT22;40101;53.002;6.488;2023-02-22T10:27:06;8.30;99.90
54192;DHT22;40101;53.002;6.488;2023-02-22T10:29:42;8.30;99.90
54192;DHT22;40101;53.002;6.488;2023-02-22T10:32:18;8.20;99.90
54192;DHT22;40101;53.002;6.488;2023-02-22T10:34:47;8.30;99.90
54192;DHT22;40101;53.002;6.488;2023-02-22T10:37:25;8.30;99.90
54192;DHT22;40101;53.002;6.488;2023-02-22T10:39:59;8.40;99.90
54192;DHT22;40101;53.002;6.488;2023-02-22T10:42:29;8.40;99.90
54192;DHT22;40101;53.002;6.488;2023-02-22T10:44:55;8.40;99.90
54192;DHT22;40101;53.002;6.488;2023-02-22T10:47:21;8.40;99.90
54192;DHT22;40101;53.002;6.488;2023-02-22T10:49:54;8.40;99.90
54192;DHT22;40101;53.002;6.488;2023-02-22T10:52:31;8.40;99.90
54192;DHT22;40101;53.002;6.488;2023-02-22T10:54:59;8.40;99.90
54192;DHT22;40101;53.002;6.488;2023-02-22T10:57:30;8.50;99.90
54192;DHT22;40101;53.002;6.488;2023-02-22T10:59:57;8.60;99.90
54192;DHT22;40101;53.002;6.488;2023-02-22T11:02:28;8.60;99.90
54192;DHT22;40101;53.002;6.488;2023-02-22T11:04:57;8.70;99.90
54192;DHT22;40101;53.002;6.488;2023-02-22T11:07:30;8.70;99.90
54192;DHT22;40101;53.002;6.488;2023-02-22T11:09:58;8.80;99.90
54192;DHT22;40101;53.002;6.488;2023-02-22T11:15:24;8.90;99.90
54192;DHT22;40101;53.002;6.488;2023-02-22T11:17:51;9.00;99.90
54192;DHT22;40101;53.002;6.488;2023-02-22T11:20:19;9.00;99.90
54192;DHT22;40101;53.002;6.488;2023-02-22T11:22:55;9.10;99.90
54192;DHT22;40101;53.002;6.488;2023-02-22T11:25:29;9.20;99.90
54192;DHT22;40101;53.002;6.488;2023-02-22T11:28:09;9.20;99.90
54192;DHT22;40101;53.002;6.488;2023-02-22T11:30:40;9.20;99.90
54192;DHT22;40101;53.002;6.488;2023-02-22T11:33:19;9.10;99.90
54192;DHT22;40101;53.002;6.488;2023-02-22T11:36:01;9.00;99.90
54192;DHT22;40101;53.002;6.488;2023-02-22T11:38:34;9.00;99.90
54192;DHT22;40101;53.002;6.488;2023-02-22T11:41:16;8.80;99.90
54192;DHT22;40101;53.002;6.488;2023-02-22T11:43:46;8.90;99.90
54192;DHT22;40101;53.002;6.488;2023-02-22T11:46:15;8.90;99.90
54192;DHT22;40101;53.002;6.488;2023-02-22T11:48:59;8.80;99.90
54192;DHT22;40101;53.002;6.488;2023-02-22T11:54:31;9.00;99.90
54192;DHT22;40101;53.002;6.488;2023-02-22T12:10:51;9.70;99.90
54192;DHT22;40101;53.002;6.488;2023-02-22T12:13:52;9.90;99.90
54192;DHT22;40101;53.002;6.488;2023-02-22T12:19:35;9.90;99.90
54192;DHT22;40101;53.002;6.488;2023-02-22T12:22:07;9.80;99.90
54192;DHT22;40101;53.002;6.488;2023-02-22T12:24:46;9.70;99.90
54192;DHT22;40101;53.002;6.488;2023-02-22T12:29:58;9.60;99.90
54192;DHT22;40101;53.002;6.488;2023-02-22T12:32:39;9.60;99.90
54192;DHT22;40101;53.002;6.488;2023-02-22T12:35:21;9.60;99.90
54192;DHT22;40101;53.002;6.488;2023-02-22T12:38:10;9.60;99.90
54192;DHT22;40101;53.002;6.488;2023-02-22T12:41:01;9.50;99.90
54192;DHT22;40101;53.002;6.488;2023-02-22T12:43:32;9.60;99.90
54192;DHT22;40101;53.002;6.488;2023-02-22T12:46:04;9.60;99.90
54192;DHT22;40101;53.002;6.488;2023-02-22T13:00:05;9.60;99.90
54192;DHT22;40101;53.002;6.488;2023-02-22T13:02:36;9.60;99.90
54192;DHT22;40101;53.002;6.488;2023-02-22T13:05:04;9.60;99.90
54192;DHT22;40101;53.002;6.488;2023-02-22T13:07:41;9.60;99.90
54192;DHT22;40101;53.002;6.488;2023-02-22T13:24:29;9.90;99.90
54192;DHT22;40101;53.002;6.488;2023-02-22T13:27:05;10.00;99.90
54192;DHT22;40101;53.002;6.488;2023-02-22T13:30:01;10.00;99.90
54192;DHT22;40101;53.002;6.488;2023-02-22T13:35:37;9.90;99.90
54192;DHT22;40101;53.002;6.488;2023-02-22T13:43:49;9.90;99.90
54192;DHT22;40101;53.002;6.488;2023-02-22T13:51:43;9.90;99.90
54192;DHT22;40101;53.002;6.488;2023-02-22T13:56:50;9.90;99.90
54192;DHT22;40101;53.002;6.488;2023-02-22T13:59:34;9.90;99.90
54192;DHT22;40101;53.002;6.488;2023-02-22T14:02:02;9.80;99.90
54192;DHT22;40101;53.002;6.488;2023-02-22T14:04:37;9.80;99.90
54192;DHT22;40101;53.002;6.488;2023-02-22T14:07:45;9.80;99.90
54192;DHT22;40101;53.002;6.488;2023-02-22T14:11:04;9.80;99.90
54192;DHT22;40101;53.002;6.488;2023-02-22T14:13:28;9.80;99.90
54192;DHT22;40101;53.002;6.488;2023-02-22T14:18:35;9.70;99.90
54192;DHT22;40101;53.002;6.488;2023-02-22T14:21:08;9.70;99.90
54192;DHT22;40101;53.002;6.488;2023-02-22T14:23:35;9.70;99.90
54192;DHT22;40101;53.002;6.488;2023-02-22T14:31:30;9.70;99.90
54192;DHT22;40101;53.002;6.488;2023-02-22T14:36:55;9.60;99.90
54192;DHT22;40101;53.002;6.488;2023-02-22T14:39:35;9.60;99.90
54192;DHT22;40101;53.002;6.488;2023-02-22T14:42:28;9.80;99.90
54192;DHT22;40101;53.002;6.488;2023-02-22T14:48:17;9.60;99.90
54192;DHT22;40101;53.002;6.488;2023-02-22T14:50:52;9.60;99.90
54192;DHT22;40101;53.002;6.488;2023-02-22T14:53:26;9.50;99.90
54192;DHT22;40101;53.002;6.488;2023-02-22T15:01:36;9.60;99.90
54192;DHT22;40101;53.002;6.488;2023-02-22T15:04:27;9.60;99.90
54192;DHT22;40101;53.002;6.488;2023-02-22T15:06:56;9.60;99.90
54192;DHT22;40101;53.002;6.488;2023-02-22T15:09:28;9.70;99.90
54192;DHT22;40101;53.002;6.488;2023-02-22T15:12:26;9.60;99.90
54192;DHT22;40101;53.002;6.488;2023-02-22T15:15:20;9.60;99.90
54192;DHT22;40101;53.002;6.488;2023-02-22T15:17:56;9.60;99.90
54192;DHT22;40101;53.002;6.488;2023-02-22T15:20:23;9.70;99.90
54192;DHT22;40101;53.002;6.488;2023-02-22T15:22:50;9.70;99.90
54192;DHT22;40101;53.002;6.488;2023-02-22T15:25:25;9.70;99.90
54192;DHT22;40101;53.002;6.488;2023-02-22T15:27:52;9.70;99.90
54192;DHT22;40101;53.002;6.488;2023-02-22T15:32:43;9.70;99.90
54192;DHT22;40101;53.002;6.488;2023-02-22T15:37:58;9.70;99.90
54192;DHT22;40101;53.002;6.488;2023-02-22T15:40:24;9.70;99.90
54192;DHT22;40101;53.002;6.488;2023-02-22T15:43:04;9.70;99.90
54192;DHT22;40101;53.002;6.488;2023-02-22T15:45:33;9.70;99.90
54192;DHT22;40101;53.002;6.488;2023-02-22T15:48:00;9.70;99.90
54192;DHT22;40101;53.002;6.488;2023-02-22T15:55:38;9.60;99.90
54192;DHT22;40101;53.002;6.488;2023-02-22T15:58:19;9.60;99.90
54192;DHT22;40101;53.002;6.488;2023-02-22T16:01:01;9.60;99.90
54192;DHT22;40101;53.002;6.488;2023-02-22T16:03:40;9.60;99.90
54192;DHT22;40101;53.002;6.488;2023-02-22T16:06:23;9.70;99.90
54192;DHT22;40101;53.002;6.488;2023-02-22T16:08:53;9.50;99.90
54192;DHT22;40101;53.002;6.488;2023-02-22T16:11:34;9.50;99.90
54192;DHT22;40101;53.002;6.488;2023-02-22T16:14:05;9.50;99.90
54192;DHT22;40101;53.002;6.488;2023-02-22T16:16:46;9.50;99.90
54192;DHT22;40101;53.002;6.488;2023-02-22T16:21:57;9.50;99.90
54192;DHT22;40101;53.002;6.488;2023-02-22T16:24:34;9.50;99.90
54192;DHT22;40101;53.002;6.488;2023-02-22T16:27:22;9.50;99.90
54192;DHT22;40101;53.002;6.488;2023-02-22T16:32:51;9.50;99.90
54192;DHT22;40101;53.002;6.488;2023-02-22T16:35:17;9.50;99.90
54192;DHT22;40101;53.002;6.488;2023-02-22T16:37:46;9.50;99.90
54192;DHT22;40101;53.002;6.488;2023-02-22T16:40:26;9.40;99.90
54192;DHT22;40101;53.002;6.488;2023-02-22T16:42:57;9.40;99.90
54192;DHT22;40101;53.002;6.488;2023-02-22T16:45:23;9.40;99.90
54192;DHT22;40101;53.002;6.488;2023-02-22T16:47:48;9.40;99.90
54192;DHT22;40101;53.002;6.488;2023-02-22T16:50:19;9.40;99.90
54192;DHT22;40101;53.002;6.488;2023-02-22T16:52:46;9.30;99.90
54192;DHT22;40101;53.002;6.488;2023-02-22T16:55:13;9.40;99.90
54192;DHT22;40101;53.002;6.488;2023-02-22T16:57:42;9.30;99.90
54192;DHT22;40101;53.002;6.488;2023-02-22T17:00:14;9.30;99.90
54192;DHT22;40101;53.002;6.488;2023-02-22T17:02:40;9.30;99.90
54192;DHT22;40101;53.002;6.488;2023-02-22T17:05:07;9.30;99.90
54192;DHT22;40101;53.002;6.488;2023-02-22T17:07:35;9.30;99.90
54192;DHT22;40101;53.002;6.488;2023-02-22T17:10:01;9.30;99.90
54192;DHT22;40101;53.002;6.488;2023-02-22T17:12:28;9.30;99.90
54192;DHT22;40101;53.002;6.488;2023-02-22T17:14:54;9.30;99.90
54192;DHT22;40101;53.002;6.488;2023-02-22T17:17:20;9.20;99.90
54192;DHT22;40101;53.002;6.488;2023-02-22T17:19:45;9.20;99.90
54192;DHT22;40101;53.002;6.488;2023-02-22T17:22:21;9.20;99.90
54192;DHT22;40101;53.002;6.488;2023-02-22T17:24:47;9.20;99.90
54192;DHT22;40101;53.002;6.488;2023-02-22T17:27:13;9.20;99.90
54192;DHT22;40101;53.002;6.488;2023-02-22T17:29:39;9.10;99.90
54192;DHT22;40101;53.002;6.488;2023-02-22T17:32:05;9.10;99.90
54192;DHT22;40101;53.002;6.488;2023-02-22T17:34:31;9.10;99.90
54192;DHT22;40101;53.002;6.488;2023-02-22T17:36:57;9.10;99.90
54192;DHT22;40101;53.002;6.488;2023-02-22T17:39:23;9.30;99.90
54192;DHT22;40101;53.002;6.488;2023-02-22T17:41:48;9.10;99.90
54192;DHT22;40101;53.002;6.488;2023-02-22T17:44:21;9.00;99.90
54192;DHT22;40101;53.002;6.488;2023-02-22T17:46:46;9.00;99.90
54192;DHT22;40101;53.002;6.488;2023-02-22T17:49:12;9.10;99.90
54192;DHT22;40101;53.002;6.488;2023-02-22T17:51:39;9.00;99.90
54192;DHT22;40101;53.002;6.488;2023-02-22T17:54:05;9.00;99.90
54192;DHT22;40101;53.002;6.488;2023-02-22T17:56:31;9.00;99.90
54192;DHT22;40101;53.002;6.488;2023-02-22T17:58:56;9.00;99.90
54192;DHT22;40101;53.002;6.488;2023-02-22T18:01:24;9.00;99.90
54192;DHT22;40101;53.002;6.488;2023-02-22T18:03:52;9.00;99.90
54192;DHT22;40101;53.002;6.488;2023-02-22T18:06:19;9.00;99.90
54192;DHT22;40101;53.002;6.488;2023-02-22T18:08:47;9.00;99.90
54192;DHT22;40101;53.002;6.488;2023-02-22T18:11:13;9.10;99.90
54192;DHT22;40101;53.002;6.488;2023-02-22T18:13:40;9.00;99.90
54192;DHT22;40101;53.002;6.488;2023-02-22T18:16:06;9.00;99.90
54192;DHT22;40101;53.002;6.488;2023-02-22T18:18:32;9.00;99.90
54192;DHT22;40101;53.002;6.488;2023-02-22T18:20:58;9.00;99.90
54192;DHT22;40101;53.002;6.488;2023-02-22T18:23:24;9.00;99.90
54192;DHT22;40101;53.002;6.488;2023-02-22T18:25:53;9.10;99.90
54192;DHT22;40101;53.002;6.488;2023-02-22T18:28:19;8.90;99.90
54192;DHT22;40101;53.002;6.488;2023-02-22T18:30:47;8.90;99.90
54192;DHT22;40101;53.002;6.488;2023-02-22T18:33:14;8.90;99.90
54192;DHT22;40101;53.002;6.488;2023-02-22T18:35:46;9.00;99.90
54192;DHT22;40101;53.002;6.488;2023-02-22T18:38:14;9.10;99.90
54192;DHT22;40101;53.002;6.488;2023-02-22T18:41:01;8.80;99.90
54192;DHT22;40101;53.002;6.488;2023-02-22T18:43:27;8.80;99.90
54192;DHT22;40101;53.002;6.488;2023-02-22T18:45:54;8.80;99.90
54192;DHT22;40101;53.002;6.488;2023-02-22T18:48:28;8.80;99.90
54192;DHT22;40101;53.002;6.488;2023-02-22T18:51:10;8.80;99.90
54192;DHT22;40101;53.002;6.488;2023-02-22T18:53:39;8.80;99.90
54192;DHT22;40101;53.002;6.488;2023-02-22T18:56:10;8.80;99.90
54192;DHT22;40101;53.002;6.488;2023-02-22T18:58:36;8.80;99.90
54192;DHT22;40101;53.002;6.488;2023-02-22T19:01:04;8.80;99.90
54192;DHT22;40101;53.002;6.488;2023-02-22T19:03:31;8.70;99.90
54192;DHT22;40101;53.002;6.488;2023-02-22T19:06:06;8.70;99.90
54192;DHT22;40101;53.002;6.488;2023-02-22T19:08:36;8.70;99.90
54192;DHT22;40101;53.002;6.488;2023-02-22T19:11:05;8.80;99.90
54192;DHT22;40101;53.002;6.488;2023-02-22T19:13:32;8.70;99.90
54192;DHT22;40101;53.002;6.488;2023-02-22T19:16:01;8.80;99.90
54192;DHT22;40101;53.002;6.488;2023-02-22T19:18:28;8.70;99.90
54192;DHT22;40101;53.002;6.488;2023-02-22T19:20:59;8.90;99.90
54192;DHT22;40101;53.002;6.488;2023-02-22T19:23:25;8.70;99.90
54192;DHT22;40101;53.002;6.488;2023-02-22T19:25:53;8.80;99.90
54192;DHT22;40101;53.002;6.488;2023-02-22T19:28:19;8.80;99.90
54192;DHT22;40101;53.002;6.488;2023-02-22T19:30:45;8.60;99.90
54192;DHT22;40101;53.002;6.488;2023-02-22T19:33:10;8.80;99.90